Time;durP1;ratioP1;P1;durP2;ratioP2;P2;SDS_P1;SDS_P2;PMS_P1;PMS_P2;Temp;Humidity;BMP_temperature;BMP_pressure;BME280_temperature;BME280_humidity;BME280_pressure;Samples;Min_cycle;Max_cycle;Signal;HPM_P1;HPM_P2
2023/05/28 00:00:57;;;;;;;18.55;12.75;;;;;;;14.30;100.00;92763.53;4929121;29;20558;-77
2023/05/28 00:03:23;;;;;;;16.63;11.88;;;;;;;14.20;100.00;92761.16;4934632;29;20070;-76
2023/05/28 00:05:49;;;;;;;18.38;12.35;;;;;;;14.02;100.00;92760.25;4934514;29;20042;-77
2023/05/28 00:08:15;;;;;;;15.52;11.57;;;;;;;13.98;100.00;92763.78;4934287;29;20039;-77
2023/05/28 00:10:41;;;;;;;19.35;12.10;;;;;;;13.91;100.00;92762.34;4936305;29;20114;-78
2023/05/28 00:13:07;;;;;;;23.85;12.20;;;;;;;13.93;100.00;92752.31;4928783;29;20507;-77
2023/05/28 00:15:32;;;;;;;19.73;12.13;;;;;;;13.90;100.00;92746.88;4950005;29;20063;-78
2023/05/28 00:17:58;;;;;;;18.38;12.70;;;;;;;13.92;100.00;92750.00;4930753;29;20498;-77
2023/05/28 00:20:25;;;;;;;23.48;12.23;;;;;;;13.97;100.00;92754.34;4935445;29;20047;-77
2023/05/28 00:22:51;;;;;;;20.92;13.10;;;;;;;13.99;100.00;92746.94;4929802;29;20035;-77
2023/05/28 00:25:16;;;;;;;17.80;13.00;;;;;;;14.01;100.00;92752.69;4948486;28;20048;-77
2023/05/28 00:27:42;;;;;;;19.65;12.68;;;;;;;14.04;100.00;92746.81;4931055;29;20066;-77
2023/05/28 00:30:08;;;;;;;19.42;13.15;;;;;;;14.05;100.00;92743.09;4935010;29;20039;-78
2023/05/28 00:32:34;;;;;;;17.08;11.70;;;;;;;14.04;100.00;92733.66;4933726;29;20032;-78
2023/05/28 00:35:00;;;;;;;18.33;11.32;;;;;;;14.02;100.00;92733.16;4916004;29;20402;-78
2023/05/28 00:37:25;;;;;;;16.23;11.32;;;;;;;14.07;100.00;92731.22;4947879;29;20039;-78
2023/05/28 00:39:51;;;;;;;16.67;10.38;;;;;;;14.08;100.00;92731.97;4934409;29;20035;-78
2023/05/28 00:42:17;;;;;;;15.30;10.00;;;;;;;14.10;100.00;92738.50;4933008;29;20070;-77
2023/05/28 00:44:43;;;;;;;16.25;9.80;;;;;;;14.08;100.00;92735.38;4934309;29;20126;-78
2023/05/28 00:47:10;;;;;;;14.50;10.20;;;;;;;14.03;100.00;92737.38;4933911;29;20032;-78
2023/05/28 00:49:36;;;;;;;13.57;9.57;;;;;;;14.04;100.00;92731.78;4929631;29;20089;-78
2023/05/28 00:52:03;;;;;;;15.23;9.38;;;;;;;14.03;100.00;92729.47;4947635;29;20036;-78
2023/05/28 00:54:30;;;;;;;13.43;8.88;;;;;;;14.02;100.00;92723.41;4932847;29;20034;-78
2023/05/28 00:56:57;;;;;;;15.90;8.65;;;;;;;14.04;100.00;92717.84;4933973;29;20090;-78
2023/05/28 00:59:25;;;;;;;12.98;8.73;;;;;;;14.07;100.00;92714.63;4934013;29;20040;-77
2023/05/28 01:01:51;;;;;;;17.77;9.27;;;;;;;14.07;100.00;92714.63;4936696;29;20032;-78
2023/05/28 01:04:17;;;;;;;13.98;8.68;;;;;;;14.04;100.00;92718.63;4926999;29;20039;-78
2023/05/28 01:06:44;;;;;;;13.07;8.80;;;;;;;14.09;100.00;92713.22;4930487;29;20071;-78
2023/05/28 01:09:11;;;;;;;12.32;8.40;;;;;;;14.05;100.00;92716.75;4927597;29;20039;-78
2023/05/28 01:11:39;;;;;;;12.77;8.95;;;;;;;13.99;100.00;92708.22;4930735;29;20052;-77
2023/05/28 01:14:07;;;;;;;11.38;8.30;;;;;;;13.97;100.00;92699.84;4932969;29;20398;-78
2023/05/28 01:16:33;;;;;;;13.70;8.13;;;;;;;13.97;100.00;92699.84;4948152;29;20486;-77
2023/05/28 01:18:59;;;;;;;14.48;7.88;;;;;;;13.93;100.00;92698.91;4929832;29;20493;-78
2023/05/28 01:21:27;;;;;;;12.00;7.68;;;;;;;13.88;100.00;92694.53;4933131;29;20529;-78
2023/05/28 01:23:57;;;;;;;11.48;7.15;;;;;;;13.87;100.00;92692.19;4931560;29;20032;-78
2023/05/28 01:26:23;;;;;;;13.38;7.38;;;;;;;13.84;100.00;92682.28;4933361;29;20375;-78
2023/05/28 01:28:49;;;;;;;13.55;7.13;;;;;;;13.83;100.00;92684.16;4924993;29;20114;-78
2023/05/28 01:31:16;;;;;;;11.00;6.68;;;;;;;13.79;100.00;92677.16;4933913;29;20027;-78
2023/05/28 01:33:43;;;;;;;9.98;6.95;;;;;;;13.77;100.00;92668.78;4929181;29;20090;-78
2023/05/28 01:36:26;;;;;;;11.20;7.00;;;;;;;13.79;100.00;92672.66;4927095;29;20055;-78
2023/05/28 01:38:58;;;;;;;9.35;6.30;;;;;;;13.72;100.00;92662.56;4924542;29;20051;-78
2023/05/28 01:41:27;;;;;;;11.40;6.30;;;;;;;13.65;100.00;92675.38;4932559;29;20122;-78
2023/05/28 01:43:54;;;;;;;9.90;6.28;;;;;;;13.59;100.00;92662.66;4915737;29;20068;-78
2023/05/28 01:46:22;;;;;;;10.90;6.60;;;;;;;13.55;100.00;92662.47;4947569;29;20055;-78
2023/05/28 01:48:48;;;;;;;9.40;6.13;;;;;;;13.50;100.00;92655.47;4945390;29;20130;-77
2023/05/28 01:51:16;;;;;;;12.43;6.05;;;;;;;13.46;100.00;92653.72;4916828;29;20114;-78
2023/05/28 01:53:42;;;;;;;11.07;5.70;;;;;;;13.44;100.00;92656.69;4930403;29;20035;-78
2023/05/28 01:56:08;;;;;;;8.48;5.15;;;;;;;13.42;100.00;92663.28;4925390;29;20051;-78
2023/05/28 01:58:34;;;;;;;8.32;4.97;;;;;;;13.37;100.00;92655.53;4931633;29;20522;-77
2023/05/28 02:01:11;;;;;;;10.02;5.07;;;;;;;13.32;100.00;92664.31;4924551;29;20055;-78
2023/05/28 02:03:37;;;;;;;10.45;5.07;;;;;;;13.29;100.00;92662.28;4926671;29;20037;-78
2023/05/28 02:06:03;;;;;;;9.35;5.63;;;;;;;13.22;100.00;92659.28;4946999;28;20417;-78
2023/05/28 02:08:29;;;;;;;9.70;5.00;;;;;;;13.20;100.00;92658.78;4946413;29;20043;-78
2023/05/28 02:10:55;;;;;;;11.88;5.88;;;;;;;13.19;100.00;92655.34;4929293;29;20098;-78
2023/05/28 02:13:21;;;;;;;9.15;4.80;;;;;;;13.14;100.00;92650.22;4929054;29;20490;-78
2023/05/28 02:15:46;;;;;;;9.07;5.03;;;;;;;13.07;100.00;92648.00;4933199;29;20046;-78
2023/05/28 02:18:12;;;;;;;6.82;4.50;;;;;;;13.05;100.00;92650.16;4929928;29;20103;-77
2023/05/28 02:20:38;;;;;;;8.90;4.90;;;;;;;12.95;100.00;92650.41;4948397;29;20077;-78
2023/05/28 02:23:04;;;;;;;7.40;4.65;;;;;;;12.90;100.00;92643.41;4933478;29;20108;-77
2023/05/28 02:25:30;;;;;;;7.80;5.05;;;;;;;12.88;100.00;92642.91;4942760;28;20043;-77
2023/05/28 02:27:55;;;;;;;7.32;4.40;;;;;;;12.84;100.00;92644.56;4933030;29;20578;-77
2023/05/28 02:30:21;;;;;;;7.43;4.38;;;;;;;12.82;100.00;92645.94;4923191;29;20035;-76
2023/05/28 02:32:47;;;;;;;8.50;4.47;;;;;;;12.77;100.00;92644.22;4929098;29;20490;-77
2023/05/28 02:35:15;;;;;;;10.27;3.97;;;;;;;12.73;100.00;92642.47;4944890;28;20040;-77
2023/05/28 02:37:41;;;;;;;7.55;4.75;;;;;;;12.70;100.00;92649.84;4911695;29;20123;-78
2023/05/28 02:40:09;;;;;;;11.82;5.00;;;;;;;12.67;100.00;92645.19;4930851;29;20058;-78
2023/05/28 02:42:36;;;;;;;8.23;4.70;;;;;;;12.66;100.00;92651.50;4921855;29;20059;-78
2023/05/28 02:45:01;;;;;;;11.57;4.20;;;;;;;12.63;100.00;92653.94;4932531;29;20118;-77
2023/05/28 02:47:27;;;;;;;7.78;4.40;;;;;;;12.54;100.00;92650.44;4930057;29;20047;-78
2023/05/28 02:49:53;;;;;;;7.95;4.30;;;;;;;12.49;100.00;92653.97;4927660;29;20126;-77
2023/05/28 02:52:19;;;;;;;11.75;4.22;;;;;;;12.44;100.00;92656.69;4925742;29;20055;-77
2023/05/28 02:54:46;;;;;;;7.88;4.50;;;;;;;12.41;100.00;92654.66;4913547;29;20040;-78
2023/05/28 02:57:12;;;;;;;6.57;3.92;;;;;;;12.37;100.00;92651.84;4921854;29;20409;-77
2023/05/28 02:59:37;;;;;;;8.82;4.15;;;;;;;12.39;100.00;92651.56;4922624;29;20051;-78
2023/05/28 03:02:03;;;;;;;7.18;4.28;;;;;;;12.34;100.00;92652.44;4926258;29;20168;-78
2023/05/28 03:04:29;;;;;;;7.47;3.85;;;;;;;12.32;100.00;92648.53;4930983;29;20040;-78
2023/05/28 03:06:54;;;;;;;7.65;4.20;;;;;;;12.26;100.00;92646.00;4932469;29;20050;-77
2023/05/28 03:09:21;;;;;;;8.68;4.25;;;;;;;12.23;100.00;92651.06;4931801;29;20067;-78
2023/05/28 03:11:47;;;;;;;7.85;4.35;;;;;;;12.20;100.00;92652.41;4929670;29;20044;-76
2023/05/28 03:14:12;;;;;;;7.30;4.38;;;;;;;12.18;100.00;92651.94;4948553;28;20406;-78
2023/05/28 03:16:38;;;;;;;7.53;4.47;;;;;;;12.18;100.00;92649.31;4931498;29;20062;-78
2023/05/28 03:19:11;;;;;;;6.72;4.28;;;;;;;12.16;100.00;92653.28;4948227;29;20036;-77
2023/05/28 03:21:38;;;;;;;7.65;4.40;;;;;;;12.13;100.00;92659.13;4935795;29;20048;-77
2023/05/28 03:24:04;;;;;;;7.53;4.47;;;;;;;12.10;100.00;92649.97;4932456;29;20402;-78
2023/05/28 03:26:41;;;;;;;8.23;4.85;;;;;;;12.08;100.00;92647.66;4951708;29;20134;-77
2023/05/28 03:29:07;;;;;;;8.85;4.30;;;;;;;12.07;100.00;92643.47;4943290;29;20070;-78
2023/05/28 03:31:55;;;;;;;11.07;4.05;;;;;;;12.07;100.00;92642.72;4916408;29;20090;-77
2023/05/28 03:34:21;;;;;;;6.68;4.30;;;;;;;12.05;100.00;92635.13;4934049;29;20048;-78
2023/05/28 03:36:47;;;;;;;7.10;4.10;;;;;;;12.06;100.00;92641.91;4935224;29;20521;-78
2023/05/28 03:39:12;;;;;;;11.90;4.55;;;;;;;12.06;100.00;92647.16;4918694;29;20411;-78
2023/05/28 03:41:39;;;;;;;8.75;4.30;;;;;;;12.08;100.00;92646.88;4917120;29;20055;-78
2023/05/28 03:44:06;;;;;;;7.20;4.10;;;;;;;12.06;100.00;92641.91;4932450;29;20102;-78
2023/05/28 03:46:32;;;;;;;7.07;4.47;;;;;;;12.07;100.00;92645.31;4936088;29;20040;-78
2023/05/28 03:48:58;;;;;;;7.68;4.10;;;;;;;12.10;100.00;92652.59;4933784;29;20485;-78
2023/05/28 03:51:25;;;;;;;7.03;4.20;;;;;;;12.12;100.00;92644.47;4933705;29;20047;-78
2023/05/28 03:53:50;;;;;;;7.53;4.35;;;;;;;12.09;100.00;92643.16;4932084;29;20035;-78
2023/05/28 03:56:18;;;;;;;7.68;4.20;;;;;;;12.07;100.00;92645.31;4932536;29;20055;-77
2023/05/28 03:58:44;;;;;;;7.13;3.88;;;;;;;12.10;100.00;92647.38;4919256;29;20056;-78
2023/05/28 04:01:10;;;;;;;8.50;4.43;;;;;;;12.14;100.00;92652.81;4928197;29;20042;-78
2023/05/28 04:03:35;;;;;;;7.93;4.43;;;;;;;12.16;100.00;92651.44;4931895;29;20036;-78
2023/05/28 04:06:02;;;;;;;9.32;4.30;;;;;;;12.19;100.00;92658.72;4934724;29;20454;-78
2023/05/28 04:08:28;;;;;;;9.27;4.40;;;;;;;12.22;100.00;92652.13;4951436;29;20054;-78
2023/05/28 04:10:54;;;;;;;7.07;4.18;;;;;;;12.26;100.00;92645.22;4933812;29;20036;-78
2023/05/28 04:13:20;;;;;;;7.57;3.90;;;;;;;12.29;100.00;92653.31;4929032;29;20028;-78
2023/05/28 04:15:46;;;;;;;6.97;3.70;;;;;;;12.29;100.00;92650.69;4949783;29;20040;-78
2023/05/28 04:18:11;;;;;;;7.35;4.10;;;;;;;12.32;100.00;92653.78;4931587;29;20078;-78
2023/05/28 04:20:37;;;;;;;7.47;3.72;;;;;;;12.35;100.00;92659.22;4943062;29;20051;-78
2023/05/28 04:23:03;;;;;;;8.20;4.20;;;;;;;12.39;100.00;92659.44;4932765;29;20518;-77
2023/05/28 04:25:30;;;;;;;11.13;4.53;;;;;;;12.43;100.00;92660.41;4918130;29;20051;-77
2023/05/28 04:27:58;;;;;;;7.15;4.10;;;;;;;12.48;100.00;92657.66;4933359;29;20044;-77
2023/05/28 04:30:24;;;;;;;6.80;4.15;;;;;;;12.54;100.00;92661.75;4943740;29;20055;-78
2023/05/28 04:32:53;;;;;;;6.15;3.97;;;;;;;12.58;100.00;92667.94;4925985;29;20048;-78
2023/05/28 04:35:19;;;;;;;7.63;4.30;;;;;;;12.63;100.00;92665.25;4936634;29;20039;-78
2023/05/28 04:37:45;;;;;;;6.95;3.90;;;;;;;12.65;100.00;92663.09;4950185;29;20450;-78
2023/05/28 04:40:14;;;;;;;6.95;3.78;;;;;;;12.68;100.00;92654.63;4934738;29;20036;-78
2023/05/28 04:42:41;;;;;;;6.55;3.92;;;;;;;12.73;100.00;92660.84;4947367;29;20051;-78
2023/05/28 04:45:08;;;;;;;9.88;4.30;;;;;;;12.74;100.00;92660.53;4930084;29;20035;-78
2023/05/28 04:47:36;;;;;;;7.95;4.25;;;;;;;12.79;100.00;92655.19;4944399;29;20066;-78
2023/05/28 04:50:06;;;;;;;6.75;3.90;;;;;;;12.85;100.00;92661.09;4926993;29;20371;-78
2023/05/28 04:52:35;;;;;;;7.55;3.83;;;;;;;12.86;100.00;92657.44;4924392;29;20039;-78
2023/05/28 04:55:04;;;;;;;6.13;3.75;;;;;;;12.89;100.00;92654.19;4933565;29;20035;-78
2023/05/28 04:57:30;;;;;;;5.97;3.42;;;;;;;12.94;100.00;92661.97;4950410;29;20060;-78
2023/05/28 04:59:56;;;;;;;6.90;3.80;;;;;;;12.93;100.00;92655.16;4934403;29;20048;-78
2023/05/28 05:02:23;;;;;;;8.00;4.00;;;;;;;12.97;100.00;92663.22;4933196;29;20054;-79
2023/05/28 05:04:49;;;;;;;5.97;3.60;;;;;;;13.00;100.00;92668.66;4918018;29;20067;-78
2023/05/28 05:07:17;;;;;;;8.52;4.00;;;;;;;13.03;100.00;92659.41;4927543;29;20127;-78
2023/05/28 05:09:43;;;;;;;7.20;4.13;;;;;;;13.07;100.00;92663.00;4948750;29;20091;-78
2023/05/28 05:12:09;;;;;;;6.60;3.80;;;;;;;13.09;100.00;92661.63;4916146;29;20038;-78
2023/05/28 05:14:35;;;;;;;7.60;4.03;;;;;;;13.12;100.00;92658.41;4916336;29;20470;-78
2023/05/28 05:17:02;;;;;;;6.28;3.90;;;;;;;13.16;100.00;92663.09;4915565;29;20066;-77
2023/05/28 05:19:28;;;;;;;6.38;3.75;;;;;;;13.21;100.00;92666.34;4940666;29;20024;-78
2023/05/28 05:21:54;;;;;;;7.30;4.60;;;;;;;13.27;100.00;92661.78;4928224;29;20034;-78
2023/05/28 05:24:20;;;;;;;10.68;4.25;;;;;;;13.30;100.00;92663.84;4928167;29;20494;-77
2023/05/28 05:26:46;;;;;;;7.28;4.00;;;;;;;13.32;100.00;92661.69;4941747;29;20095;-78
2023/05/28 05:29:11;;;;;;;8.93;4.15;;;;;;;13.37;100.00;92666.03;4912429;29;20043;-78
2023/05/28 05:31:37;;;;;;;6.60;3.97;;;;;;;13.40;100.00;92660.97;4912742;29;20039;-79
2023/05/28 05:34:06;;;;;;;6.57;4.10;;;;;;;13.46;100.00;92657.13;4940257;29;20122;-77
2023/05/28 05:36:50;;;;;;;7.93;4.38;;;;;;;13.54;100.00;92659.06;4925377;29;20103;-78
2023/05/28 05:39:34;;;;;;;7.38;4.32;;;;;;;13.62;100.00;92667.28;4933945;29;20459;-76
2023/05/28 05:42:20;;;;;;;7.45;4.40;;;;;;;13.68;100.00;92660.84;4933334;29;20069;-77
2023/05/28 05:44:49;;;;;;;7.05;4.15;;;;;;;13.78;100.00;92665.88;4925581;29;20040;-76
2023/05/28 05:47:14;;;;;;;6.85;4.40;;;;;;;14.03;100.00;92663.69;4929824;29;20036;-76
2023/05/28 05:49:40;;;;;;;7.80;3.95;;;;;;;14.22;100.00;92666.06;4916048;29;20576;-77
2023/05/28 05:52:06;;;;;;;7.82;4.10;;;;;;;14.30;100.00;92666.09;4932815;29;20091;-77
2023/05/28 05:54:37;;;;;;;6.80;3.80;;;;;;;14.37;100.00;92658.53;4933741;29;20127;-77
2023/05/28 05:57:03;;;;;;;6.63;4.18;;;;;;;14.46;100.00;92653.31;4948555;29;20607;-76
2023/05/28 05:59:29;;;;;;;7.00;4.22;;;;;;;14.49;100.00;92655.31;4932899;29;20039;-77
2023/05/28 06:01:55;;;;;;;7.72;4.30;;;;;;;14.60;100.00;92655.84;4918838;29;20055;-76
2023/05/28 06:04:22;;;;;;;6.55;4.07;;;;;;;14.71;100.00;92654.47;4932953;29;20045;-77
2023/05/28 06:07:07;;;;;;;9.18;4.20;;;;;;;14.86;100.00;92655.13;4948704;29;20051;-76
2023/05/28 06:09:56;;;;;;;6.57;3.92;;;;;;;15.06;100.00;92654.50;4900974;29;20047;-76
2023/05/28 06:12:26;;;;;;;7.85;3.90;;;;;;;15.45;100.00;92650.19;4945760;29;20041;-77
2023/05/28 06:14:52;;;;;;;5.93;4.07;;;;;;;16.26;100.00;92651.28;4933206;29;20070;-77
2023/05/28 06:17:18;;;;;;;6.40;4.20;;;;;;;16.49;100.00;92643.09;4933087;29;20047;-77
2023/05/28 06:19:44;;;;;;;8.52;4.10;;;;;;;16.78;100.00;92645.72;4933168;29;20046;-77
2023/05/28 06:22:10;;;;;;;6.30;4.13;;;;;;;17.26;100.00;92639.19;4932870;29;20034;-77
2023/05/28 06:24:38;;;;;;;7.38;3.80;;;;;;;17.54;100.00;92633.38;4949500;28;20466;-77
2023/05/28 06:27:05;;;;;;;6.25;3.47;;;;;;;17.41;100.00;92634.44;4932578;29;20040;-76
2023/05/28 06:29:30;;;;;;;5.88;3.47;;;;;;;17.30;100.00;92628.75;4931719;29;20032;-76
2023/05/28 06:31:57;;;;;;;7.07;3.72;;;;;;;17.39;100.00;92633.97;4932764;29;20042;-77
2023/05/28 06:34:22;;;;;;;5.75;3.70;;;;;;;17.79;100.00;92628.19;4923089;29;20067;-77
2023/05/28 06:36:48;;;;;;;5.82;3.72;;;;;;;18.22;100.00;92635.66;4913933;29;20052;-77
2023/05/28 06:39:14;;;;;;;6.15;3.78;;;;;;;18.31;100.00;92622.31;4915054;29;20074;-76
2023/05/28 06:41:43;;;;;;;6.50;3.67;;;;;;;18.40;100.00;92625.63;4928582;29;20055;-77
2023/05/28 06:44:17;;;;;;;5.57;3.40;;;;;;;18.49;100.00;92631.59;4933190;29;20035;-78
2023/05/28 06:46:44;;;;;;;7.85;3.80;;;;;;;18.57;100.00;92629.16;4938275;29;20353;-77
2023/05/28 06:49:12;;;;;;;7.57;3.72;;;;;;;18.80;100.00;92638.25;4938611;29;20048;-77
2023/05/28 06:51:38;;;;;;;6.82;4.10;;;;;;;19.07;100.00;92631.47;4922388;29;20048;-78
2023/05/28 06:54:04;;;;;;;5.88;3.58;;;;;;;19.40;100.00;92638.44;4943774;29;20090;-78
2023/05/28 06:56:31;;;;;;;6.88;3.67;;;;;;;19.54;100.00;92632.75;4943484;29;20039;-79
2023/05/28 06:59:29;;;;;;;6.28;3.53;;;;;;;19.69;100.00;92636.59;4913344;29;20067;-80
2023/05/28 07:02:27;;;;;;;5.63;3.40;;;;;;;19.87;98.79;92637.84;4915615;29;20055;-78
2023/05/28 07:04:54;;;;;;;7.63;4.13;;;;;;;19.69;100.00;92629.41;4955860;29;20050;-80
2023/05/28 07:07:24;;;;;;;8.15;4.95;;;;;;;18.92;100.00;92635.59;4964630;29;20031;-79
2023/05/28 07:09:50;;;;;;;8.48;5.43;;;;;;;18.52;100.00;92630.94;4961601;29;20066;-80
2023/05/28 07:12:16;;;;;;;8.02;5.28;;;;;;;18.20;100.00;92626.50;4950912;29;20095;-77
2023/05/28 07:14:46;;;;;;;9.05;4.72;;;;;;;18.23;100.00;92636.44;4941294;29;20043;-78
2023/05/28 07:17:12;;;;;;;9.48;5.82;;;;;;;18.24;100.00;92630.06;4942388;29;20493;-78
2023/05/28 07:19:40;;;;;;;7.13;4.90;;;;;;;18.17;100.00;92632.44;4940820;29;20090;-77
2023/05/28 07:22:06;;;;;;;9.85;5.13;;;;;;;18.14;100.00;92638.41;4954034;29;20038;-77
2023/05/28 07:24:32;;;;;;;10.07;5.63;;;;;;;17.73;100.00;92640.81;4939482;29;20047;-77
2023/05/28 07:26:58;;;;;;;9.68;5.40;;;;;;;17.82;100.00;92635.47;4940721;29;20147;-77
2023/05/28 07:29:26;;;;;;;9.52;5.22;;;;;;;18.27;100.00;92637.34;4942828;29;20051;-79
2023/05/28 07:31:52;;;;;;;8.93;5.07;;;;;;;18.25;100.00;92634.25;4942873;29;20406;-78
2023/05/28 07:34:21;;;;;;;9.82;4.80;;;;;;;18.34;100.00;92637.56;4955849;28;20035;-77
2023/05/28 07:36:47;;;;;;;8.02;4.63;;;;;;;18.26;100.00;92633.91;4936035;29;20040;-78
2023/05/28 07:39:13;;;;;;;8.07;4.72;;;;;;;18.20;100.00;92642.41;4934490;29;20058;-78
2023/05/28 07:41:39;;;;;;;7.40;5.07;;;;;;;18.06;100.00;92635.53;4932440;29;20040;-78
2023/05/28 07:44:25;;;;;;;7.10;4.63;;;;;;;17.97;100.00;92634.88;4944314;28;20047;-77
2023/05/28 07:46:51;;;;;;;13.23;5.43;;;;;;;17.83;100.00;92634.38;4945448;29;20107;-79
2023/05/28 07:49:40;;;;;;;8.85;5.30;;;;;;;17.82;100.00;92635.47;4929658;29;20051;-79
2023/05/28 07:52:06;;;;;;;7.10;4.80;;;;;;;17.78;100.00;92626.63;4952885;29;20031;-80
2023/05/28 07:54:33;;;;;;;7.50;4.53;;;;;;;18.19;100.00;92635.53;4938171;29;20505;-80
2023/05/28 07:57:00;;;;;;;8.50;4.55;;;;;;;18.30;100.00;92631.38;4951294;29;21507;-78
2023/05/28 07:59:31;;;;;;;7.38;4.72;;;;;;;18.34;100.00;92632.25;4952619;29;20040;-79
2023/05/28 08:01:58;;;;;;;7.20;4.40;;;;;;;18.58;100.00;92631.50;4939456;29;20050;-77
2023/05/28 08:04:23;;;;;;;7.47;5.05;;;;;;;18.64;100.00;92632.03;4951301;28;20039;-78
2023/05/28 08:06:49;;;;;;;10.02;5.07;;;;;;;18.54;100.00;92635.91;4933741;29;20063;-79
2023/05/28 08:09:17;;;;;;;8.82;4.90;;;;;;;18.60;100.00;92631.16;4938536;29;20032;-79
2023/05/28 08:11:45;;;;;;;8.05;4.90;;;;;;;18.67;100.00;92632.16;4939584;29;20035;-80
2023/05/28 08:14:10;;;;;;;8.38;5.40;;;;;;;18.93;100.00;92628.38;4955990;28;20058;-79
2023/05/28 08:16:39;;;;;;;7.72;5.10;;;;;;;18.83;100.00;92626.97;4936955;29;20040;-76
2023/05/28 08:19:16;;;;;;;8.35;5.00;;;;;;;19.17;100.00;92622.25;4929284;29;20111;-78
2023/05/28 08:21:44;;;;;;;11.07;4.78;;;;;;;19.09;100.00;92628.47;4932223;29;20059;-78
2023/05/28 08:24:11;;;;;;;7.45;4.95;;;;;;;19.04;100.00;92626.06;4922088;29;20361;-82
2023/05/28 08:26:37;;;;;;;8.45;4.60;;;;;;;18.69;100.00;92622.00;4935093;29;20043;-77
2023/05/28 08:29:04;;;;;;;8.50;4.75;;;;;;;18.67;100.00;92626.09;4929985;29;20039;-78
2023/05/28 08:31:33;;;;;;;6.88;4.38;;;;;;;18.81;100.00;92623.88;4931853;29;20036;-78
2023/05/28 08:34:08;;;;;;;9.20;5.43;;;;;;;18.67;100.00;92613.59;4929446;29;20047;-78
2023/05/28 08:36:33;;;;;;;9.38;5.45;;;;;;;18.54;100.00;92613.94;4916463;29;20046;-79
2023/05/28 08:39:01;;;;;;;8.07;5.20;;;;;;;18.80;100.00;92611.75;4937750;29;20024;-79
2023/05/28 08:41:27;;;;;;;8.05;4.72;;;;;;;18.82;100.00;92606.84;4934369;29;20102;-79
2023/05/28 08:43:53;;;;;;;7.93;4.82;;;;;;;19.17;100.00;92614.31;4949033;28;20402;-79
2023/05/28 08:46:19;;;;;;;8.23;5.03;;;;;;;19.56;100.00;92614.59;4935448;29;20035;-78
2023/05/28 08:49:11;;;;;;;8.90;4.57;;;;;;;19.80;100.00;92597.06;4935305;29;20055;-79
2023/05/28 08:51:42;;;;;;;8.38;4.50;;;;;;;19.83;100.00;92599.03;4932678;29;20413;-79
2023/05/28 08:54:08;;;;;;;7.50;4.55;;;;;;;19.69;100.00;92608.16;4939220;29;20033;-79
2023/05/28 08:56:34;;;;;;;10.07;5.00;;;;;;;19.61;100.00;92600.31;4946121;29;20040;-78
2023/05/28 08:59:03;;;;;;;8.13;4.95;;;;;;;19.55;100.00;92605.13;4934958;29;20541;-78
2023/05/28 09:01:29;;;;;;;8.25;5.03;;;;;;;19.88;100.00;92598.75;4955043;28;20502;-78
2023/05/28 09:04:04;;;;;;;8.32;4.88;;;;;;;19.56;100.00;92601.34;4950491;28;20035;-79
2023/05/28 09:06:39;;;;;;;7.38;4.78;;;;;;;19.26;100.00;92604.31;4935724;29;20414;-78
2023/05/28 09:09:09;;;;;;;8.45;5.20;;;;;;;19.62;100.00;92605.28;4935754;29;20048;-80
2023/05/28 09:11:41;;;;;;;8.13;4.70;;;;;;;19.83;100.00;92601.69;4919253;29;20023;-79
2023/05/28 09:14:11;;;;;;;10.25;5.60;;;;;;;19.59;100.00;92602.53;4937984;29;20047;-80
2023/05/28 09:16:42;;;;;;;7.45;4.57;;;;;;;19.55;100.00;92607.78;4931664;29;20036;-80
2023/05/28 09:19:10;;;;;;;7.97;4.60;;;;;;;19.42;100.00;92608.94;4949767;29;20045;-80
2023/05/28 09:21:38;;;;;;;7.80;4.78;;;;;;;18.92;100.00;92603.75;4935327;29;20040;-80
2023/05/28 09:24:07;;;;;;;10.63;5.30;;;;;;;19.00;100.00;92601.31;4934766;29;20071;-79
2023/05/28 09:26:54;;;;;;;9.02;4.85;;;;;;;19.31;100.00;92596.13;4931407;29;20095;-79
2023/05/28 09:29:26;;;;;;;8.10;4.80;;;;;;;19.54;100.00;92598.25;4948094;29;20051;-79
2023/05/28 09:31:55;;;;;;;8.63;4.60;;;;;;;19.68;100.00;92590.66;4929868;29;20078;-79
2023/05/28 09:34:24;;;;;;;10.07;6.45;;;;;;;19.69;100.00;92588.81;4927572;29;20410;-79
2023/05/28 09:36:51;;;;;;;9.35;5.20;;;;;;;19.47;100.00;92590.84;4927426;29;20047;-82
2023/05/28 09:39:17;;;;;;;10.13;7.03;;;;;;;19.15;100.00;92592.63;4935519;29;20036;-82
2023/05/28 09:41:44;;;;;;;9.07;5.78;;;;;;;19.44;100.00;92583.59;4934716;29;20119;-80
2023/05/28 09:44:10;;;;;;;8.30;4.72;;;;;;;19.73;100.00;92581.72;4938509;29;20062;-81
2023/05/28 09:46:36;;;;;;;8.48;4.72;;;;;;;19.99;100.00;92583.88;4941817;29;20040;-80
2023/05/28 09:49:03;;;;;;;9.13;5.63;;;;;;;19.92;100.00;92573.06;4937668;29;20059;-80
2023/05/28 09:51:30;;;;;;;9.73;6.28;;;;;;;20.12;100.00;92577.38;4935280;29;20122;-80
2023/05/28 09:54:02;;;;;;;8.80;5.13;;;;;;;20.47;100.00;92576.66;4933639;29;20028;-81
2023/05/28 09:56:31;;;;;;;7.85;4.97;;;;;;;20.56;100.00;92579.94;4941263;29;20043;-81
2023/05/28 09:59:01;;;;;;;12.13;6.07;;;;;;;20.15;90.64;92574.03;4941371;29;20047;-81
2023/05/28 10:01:47;;;;;;;10.00;5.10;;;;;;;20.53;90.14;92569.94;4941149;29;20031;-81
2023/05/28 10:04:16;;;;;;;7.82;5.03;;;;;;;20.11;95.59;92573.19;4933465;29;20031;-81
2023/05/28 10:06:43;;;;;;;9.10;5.60;;;;;;;20.41;94.57;92569.31;4948865;28;20062;-81
2023/05/28 10:09:14;;;;;;;8.38;4.88;;;;;;;20.41;83.45;92575.38;4941463;29;20549;-83
2023/05/28 10:11:44;;;;;;;7.60;4.75;;;;;;;20.40;90.36;92571.19;4938551;29;20159;-80
2023/05/28 10:14:11;;;;;;;11.88;5.35;;;;;;;20.49;85.47;92574.44;4935882;29;20028;-75
2023/05/28 10:16:37;;;;;;;11.30;6.43;;;;;;;20.56;89.33;92577.28;4932773;29;20039;-76
2023/05/28 10:19:02;;;;;;;7.78;4.63;;;;;;;20.66;83.01;92573.31;4932225;29;20035;-76
2023/05/28 10:21:28;;;;;;;10.52;5.38;;;;;;;20.66;86.74;92578.63;4932415;29;20394;-75
2023/05/28 10:23:56;;;;;;;8.50;5.07;;;;;;;20.52;87.43;92567.66;4931163;29;20040;-76
2023/05/28 10:26:23;;;;;;;9.25;5.10;;;;;;;20.43;80.80;92565.19;4930654;29;20039;-74
2023/05/28 10:28:55;;;;;;;8.07;5.25;;;;;;;20.69;78.99;92574.50;4935334;29;20032;-75
2023/05/28 10:31:22;;;;;;;11.43;5.95;;;;;;;20.64;72.10;92577.44;4932668;29;20047;-74
2023/05/28 10:33:48;;;;;;;10.82;5.32;;;;;;;20.52;78.10;92559.69;4931350;29;20458;-76
2023/05/28 10:36:15;;;;;;;8.20;4.93;;;;;;;20.67;74.10;92560.78;4937149;29;20031;-75
2023/05/28 10:39:03;;;;;;;9.18;5.88;;;;;;;20.78;74.08;92554.59;4934532;29;20074;-76
2023/05/28 10:41:34;;;;;;;11.30;5.78;;;;;;;20.51;75.08;92561.56;4929491;29;20054;-75
2023/05/28 10:44:09;;;;;;;12.15;5.78;;;;;;;20.62;72.25;92555.72;4935186;29;20036;-75
2023/05/28 10:46:39;;;;;;;10.93;5.90;;;;;;;20.93;78.00;92552.97;4927413;29;20027;-75
2023/05/28 10:49:16;;;;;;;12.60;6.20;;;;;;;21.46;73.73;92544.56;4936173;29;20180;-76
2023/05/28 10:51:43;;;;;;;9.65;5.75;;;;;;;21.79;68.81;92553.88;4931113;29;20047;-75
2023/05/28 10:54:20;;;;;;;7.65;4.90;;;;;;;21.92;67.58;92551.81;4933589;29;20083;-75
2023/05/28 10:57:15;;;;;;;9.52;5.32;;;;;;;21.63;66.91;92536.09;4932683;29;20046;-75
2023/05/28 10:59:51;;;;;;;8.88;5.22;;;;;;;21.58;64.67;92535.63;4935920;29;20036;-75
2023/05/28 11:02:19;;;;;;;7.88;5.28;;;;;;;21.25;70.47;92536.88;4935724;29;20373;-75
2023/05/28 11:04:45;;;;;;;9.40;5.43;;;;;;;21.39;74.87;92531.84;4930713;29;20087;-75
2023/05/28 11:07:12;;;;;;;9.48;5.43;;;;;;;21.32;73.08;92533.59;4934605;29;20159;-75
2023/05/28 11:09:38;;;;;;;10.18;5.38;;;;;;;21.23;74.27;92525.06;4937750;29;20379;-77
2023/05/28 11:12:05;;;;;;;6.57;4.72;;;;;;;21.12;71.07;92533.63;4935284;29;20030;-77
2023/05/28 11:14:35;;;;;;;8.93;5.68;;;;;;;21.26;68.59;92530.47;4937689;29;20047;-77
2023/05/28 11:17:00;;;;;;;8.95;4.85;;;;;;;21.31;71.72;92521.41;4937776;29;20036;-76
2023/05/28 11:19:26;;;;;;;12.05;5.50;;;;;;;21.48;71.37;92521.00;4936090;29;20094;-77
2023/05/28 11:21:53;;;;;;;8.93;5.38;;;;;;;21.53;71.26;92517.28;4936981;29;20039;-77
2023/05/28 11:24:22;;;;;;;8.35;5.28;;;;;;;21.54;67.35;92513.47;4936374;29;20059;-76
2023/05/28 11:26:47;;;;;;;7.30;4.57;;;;;;;21.20;71.43;92515.88;4936429;29;20427;-76
2023/05/28 11:29:15;;;;;;;8.98;5.78;;;;;;;20.98;69.70;92525.34;4936095;29;20051;-77